메인 페이지
METAR-TAF:

METAR-TAF

공항 :

리브르빌, 가봉

위도: 00-27N, 경도: 009-25E, 고도: 12m

현재 날씨관측

예보는 6분 전, 22:30시(UTC)에 발표되었습니다.
남남서8kt풍과 서남서풍을 오가는
온도 26°C
습도 79%
기압 1016 hPa
시정 10km 이상
고도 1600ft 상공 구름 보통

METAR: FOOL 182230Z 20008KT 170V240 9999 SCT016 26/22 Q1016 NOSIG

시각: 23:36 (22:36 UTC)

예보

예보는 5 시간 36분 전, 17:00시(UTC)에 발표되었습니다.
예보 대상 시간: 18일 18시부터 19일 24시까지 (UTC)
남서8kt
시정 10km 이상
고도 1100ft 상공 구름 보통
고도 3000ft 상공 구름 많음
일시적
19일 03시부터 19일 11시까지 (UTC)
고도 800ft 상공 구름 많음
고도 2600ft 상공 흐림

TAF: FOOL 181700Z 1818/1924 22008KT 9999 SCT011 BKN030 TEMPO 1903/1911 BKN008 OVC026

4,000개 이상의 공항 관측 자료 및 예보 (METAR 및 TAF 보고).

지도상에서 검색 가능한 기상관측소가 노란 점과 빨간 점으로 표시되어 있습니다.

기상관측소 명을 보려면 표시 위로 마우스를 이동하세요.

날씨 관측과 예보를 보려면 클릭하세요.

지도 변경 : 확대하려면 엑스 표시가 있는 녹색 버튼, 축소하려면 빼기 표시가 있는 녹색 버튼, 다음 페이지의 지도를 보려면 녹색 화살표를 클릭하세요.


METAR-TAF: